sensor_id;sensor_type;location;lat;lon;timestamp;P1;durP1;ratioP1;P2;durP2;ratioP2
67185;SDS011;54116;53.518;49.398;2023-02-28T00:00:24;7.30;;;3.25;;
67185;SDS011;54116;53.518;49.398;2023-02-28T00:02:51;8.43;;;3.22;;
67185;SDS011;54116;53.518;49.398;2023-02-28T00:05:18;7.40;;;2.90;;
67185;SDS011;54116;53.518;49.398;2023-02-28T00:07:47;7.95;;;3.20;;
67185;SDS011;54116;53.518;49.398;2023-02-28T00:10:17;7.15;;;2.92;;
67185;SDS011;54116;53.518;49.398;2023-02-28T00:12:48;6.47;;;3.10;;
67185;SDS011;54116;53.518;49.398;2023-02-28T00:15:16;8.98;;;3.42;;
67185;SDS011;54116;53.518;49.398;2023-02-28T00:17:43;8.38;;;3.40;;
67185;SDS011;54116;53.518;49.398;2023-02-28T00:20:10;8.18;;;3.15;;
67185;SDS011;54116;53.518;49.398;2023-02-28T00:22:39;9.05;;;3.60;;
67185;SDS011;54116;53.518;49.398;2023-02-28T00:25:06;7.63;;;2.67;;
67185;SDS011;54116;53.518;49.398;2023-02-28T00:27:39;7.20;;;2.78;;
67185;SDS011;54116;53.518;49.398;2023-02-28T00:30:06;8.00;;;3.42;;
67185;SDS011;54116;53.518;49.398;2023-02-28T00:32:35;8.65;;;3.20;;
67185;SDS011;54116;53.518;49.398;2023-02-28T00:35:02;8.98;;;3.38;;
67185;SDS011;54116;53.518;49.398;2023-02-28T00:37:29;7.80;;;2.97;;
67185;SDS011;54116;53.518;49.398;2023-02-28T00:39:56;9.10;;;2.95;;
67185;SDS011;54116;53.518;49.398;2023-02-28T00:44:49;7.10;;;3.03;;
67185;SDS011;54116;53.518;49.398;2023-02-28T00:47:15;7.50;;;2.95;;
67185;SDS011;54116;53.518;49.398;2023-02-28T00:49:42;7.63;;;2.88;;
67185;SDS011;54116;53.518;49.398;2023-02-28T00:52:08;7.03;;;2.92;;
67185;SDS011;54116;53.518;49.398;2023-02-28T00:57:01;7.15;;;2.75;;
67185;SDS011;54116;53.518;49.398;2023-02-28T01:01:53;6.65;;;2.85;;
67185;SDS011;54116;53.518;49.398;2023-02-28T01:04:20;6.55;;;2.53;;
67185;SDS011;54116;53.518;49.398;2023-02-28T01:06:46;7.22;;;3.03;;
67185;SDS011;54116;53.518;49.398;2023-02-28T01:09:13;7.15;;;2.80;;
67185;SDS011;54116;53.518;49.398;2023-02-28T01:11:39;8.50;;;3.05;;
67185;SDS011;54116;53.518;49.398;2023-02-28T01:14:07;7.30;;;3.00;;
67185;SDS011;54116;53.518;49.398;2023-02-28T01:16:34;7.85;;;3.35;;
67185;SDS011;54116;53.518;49.398;2023-02-28T01:19:00;8.32;;;2.85;;
67185;SDS011;54116;53.518;49.398;2023-02-28T01:21:27;7.55;;;3.08;;
67185;SDS011;54116;53.518;49.398;2023-02-28T01:23:56;8.38;;;3.17;;
67185;SDS011;54116;53.518;49.398;2023-02-28T01:26:23;7.18;;;2.75;;
67185;SDS011;54116;53.518;49.398;2023-02-28T01:28:50;8.43;;;3.15;;
67185;SDS011;54116;53.518;49.398;2023-02-28T01:31:18;7.95;;;3.03;;
67185;SDS011;54116;53.518;49.398;2023-02-28T01:33:45;6.57;;;2.45;;
67185;SDS011;54116;53.518;49.398;2023-02-28T01:36:13;7.32;;;2.80;;
67185;SDS011;54116;53.518;49.398;2023-02-28T01:38:41;6.43;;;2.83;;
67185;SDS011;54116;53.518;49.398;2023-02-28T01:41:08;7.38;;;2.92;;
67185;SDS011;54116;53.518;49.398;2023-02-28T01:47:05;8.35;;;2.60;;
67185;SDS011;54116;53.518;49.398;2023-02-28T01:49:32;7.13;;;2.92;;
67185;SDS011;54116;53.518;49.398;2023-02-28T01:51:58;6.72;;;2.40;;
67185;SDS011;54116;53.518;49.398;2023-02-28T01:57:18;7.38;;;2.83;;
67185;SDS011;54116;53.518;49.398;2023-02-28T01:59:50;6.72;;;2.40;;
67185;SDS011;54116;53.518;49.398;2023-02-28T02:02:22;7.93;;;2.63;;
67185;SDS011;54116;53.518;49.398;2023-02-28T02:04:51;7.22;;;3.00;;
67185;SDS011;54116;53.518;49.398;2023-02-28T02:07:24;6.55;;;2.47;;
67185;SDS011;54116;53.518;49.398;2023-02-28T02:10:06;8.38;;;2.92;;
67185;SDS011;54116;53.518;49.398;2023-02-28T02:17:45;6.53;;;2.65;;
67185;SDS011;54116;53.518;49.398;2023-02-28T02:34:27;7.10;;;2.83;;
67185;SDS011;54116;53.518;49.398;2023-02-28T02:37:18;6.93;;;2.22;;
67185;SDS011;54116;53.518;49.398;2023-02-28T02:40:02;5.90;;;2.17;;
67185;SDS011;54116;53.518;49.398;2023-02-28T02:43:01;6.80;;;2.58;;
67185;SDS011;54116;53.518;49.398;2023-02-28T02:48:27;7.22;;;3.10;;
67185;SDS011;54116;53.518;49.398;2023-02-28T02:50:57;6.72;;;2.70;;
67185;SDS011;54116;53.518;49.398;2023-02-28T02:53:33;7.15;;;3.08;;
67185;SDS011;54116;53.518;49.398;2023-02-28T02:56:02;5.78;;;2.33;;
67185;SDS011;54116;53.518;49.398;2023-02-28T02:58:32;6.78;;;2.88;;
67185;SDS011;54116;53.518;49.398;2023-02-28T03:01:08;7.50;;;2.92;;
67185;SDS011;54116;53.518;49.398;2023-02-28T03:03:39;9.07;;;3.28;;
67185;SDS011;54116;53.518;49.398;2023-02-28T03:06:06;6.95;;;2.67;;
67185;SDS011;54116;53.518;49.398;2023-02-28T03:11:04;6.65;;;2.28;;
67185;SDS011;54116;53.518;49.398;2023-02-28T03:22:10;8.40;;;2.90;;
67185;SDS011;54116;53.518;49.398;2023-02-28T03:24:43;7.43;;;3.10;;
67185;SDS011;54116;53.518;49.398;2023-02-28T03:27:23;6.78;;;2.63;;
67185;SDS011;54116;53.518;49.398;2023-02-28T03:29:59;7.00;;;2.47;;
67185;SDS011;54116;53.518;49.398;2023-02-28T03:33:02;6.38;;;2.47;;
67185;SDS011;54116;53.518;49.398;2023-02-28T03:35:37;7.80;;;2.83;;
67185;SDS011;54116;53.518;49.398;2023-02-28T03:38:09;7.75;;;2.83;;
67185;SDS011;54116;53.518;49.398;2023-02-28T03:40:46;7.50;;;2.60;;
67185;SDS011;54116;53.518;49.398;2023-02-28T03:43:18;7.15;;;2.80;;
67185;SDS011;54116;53.518;49.398;2023-02-28T03:45:49;6.47;;;2.58;;
67185;SDS011;54116;53.518;49.398;2023-02-28T03:53:14;8.23;;;2.90;;
67185;SDS011;54116;53.518;49.398;2023-02-28T03:55:48;7.55;;;2.97;;
67185;SDS011;54116;53.518;49.398;2023-02-28T03:58:22;8.57;;;2.50;;
67185;SDS011;54116;53.518;49.398;2023-02-28T04:01:15;7.65;;;3.33;;
67185;SDS011;54116;53.518;49.398;2023-02-28T04:03:45;8.45;;;3.03;;
67185;SDS011;54116;53.518;49.398;2023-02-28T04:08:46;9.05;;;3.45;;
67185;SDS011;54116;53.518;49.398;2023-02-28T04:11:18;9.52;;;3.17;;
67185;SDS011;54116;53.518;49.398;2023-02-28T04:13:56;7.82;;;3.08;;
67185;SDS011;54116;53.518;49.398;2023-02-28T04:18:48;8.48;;;3.30;;
67185;SDS011;54116;53.518;49.398;2023-02-28T04:21:15;7.88;;;2.88;;
67185;SDS011;54116;53.518;49.398;2023-02-28T04:23:41;9.75;;;4.07;;
67185;SDS011;54116;53.518;49.398;2023-02-28T04:26:08;8.80;;;3.28;;
67185;SDS011;54116;53.518;49.398;2023-02-28T04:28:36;8.07;;;2.95;;
67185;SDS011;54116;53.518;49.398;2023-02-28T04:31:04;7.90;;;2.90;;
67185;SDS011;54116;53.518;49.398;2023-02-28T04:33:31;7.55;;;2.95;;
67185;SDS011;54116;53.518;49.398;2023-02-28T04:36:02;9.05;;;3.40;;
67185;SDS011;54116;53.518;49.398;2023-02-28T04:38:34;9.45;;;3.63;;
67185;SDS011;54116;53.518;49.398;2023-02-28T04:41:02;8.75;;;3.28;;
67185;SDS011;54116;53.518;49.398;2023-02-28T04:43:30;7.97;;;3.25;;
67185;SDS011;54116;53.518;49.398;2023-02-28T04:45:57;8.65;;;3.55;;
67185;SDS011;54116;53.518;49.398;2023-02-28T04:48:27;7.78;;;2.95;;
67185;SDS011;54116;53.518;49.398;2023-02-28T04:50:54;8.27;;;3.08;;
67185;SDS011;54116;53.518;49.398;2023-02-28T04:53:21;7.88;;;3.63;;
67185;SDS011;54116;53.518;49.398;2023-02-28T04:55:47;8.35;;;3.33;;
67185;SDS011;54116;53.518;49.398;2023-02-28T04:58:14;8.13;;;3.33;;
67185;SDS011;54116;53.518;49.398;2023-02-28T05:00:40;8.80;;;3.55;;
67185;SDS011;54116;53.518;49.398;2023-02-28T05:03:06;8.95;;;3.42;;
67185;SDS011;54116;53.518;49.398;2023-02-28T05:05:33;8.63;;;3.42;;
67185;SDS011;54116;53.518;49.398;2023-02-28T05:07:59;9.48;;;3.15;;
67185;SDS011;54116;53.518;49.398;2023-02-28T05:10:25;7.18;;;2.83;;
67185;SDS011;54116;53.518;49.398;2023-02-28T05:12:52;7.20;;;3.25;;
67185;SDS011;54116;53.518;49.398;2023-02-28T05:15:18;8.63;;;3.47;;
67185;SDS011;54116;53.518;49.398;2023-02-28T05:17:44;8.25;;;3.30;;
67185;SDS011;54116;53.518;49.398;2023-02-28T05:22:42;7.65;;;3.13;;
67185;SDS011;54116;53.518;49.398;2023-02-28T05:25:13;8.25;;;3.03;;
67185;SDS011;54116;53.518;49.398;2023-02-28T05:27:42;9.38;;;4.15;;
67185;SDS011;54116;53.518;49.398;2023-02-28T05:30:09;6.32;;;2.63;;
67185;SDS011;54116;53.518;49.398;2023-02-28T05:32:37;6.22;;;2.17;;
67185;SDS011;54116;53.518;49.398;2023-02-28T05:35:04;7.05;;;2.90;;
67185;SDS011;54116;53.518;49.398;2023-02-28T05:37:30;8.80;;;3.70;;
67185;SDS011;54116;53.518;49.398;2023-02-28T05:39:57;6.38;;;2.72;;
67185;SDS011;54116;53.518;49.398;2023-02-28T05:42:23;5.50;;;2.15;;
67185;SDS011;54116;53.518;49.398;2023-02-28T05:44:49;6.40;;;2.42;;
67185;SDS011;54116;53.518;49.398;2023-02-28T05:49:42;6.38;;;2.38;;
67185;SDS011;54116;53.518;49.398;2023-02-28T05:52:09;5.22;;;1.95;;
67185;SDS011;54116;53.518;49.398;2023-02-28T05:54:36;7.53;;;2.92;;
67185;SDS011;54116;53.518;49.398;2023-02-28T05:57:02;7.53;;;2.88;;
67185;SDS011;54116;53.518;49.398;2023-02-28T06:01:55;6.22;;;1.98;;
67185;SDS011;54116;53.518;49.398;2023-02-28T06:04:21;6.53;;;2.38;;
67185;SDS011;54116;53.518;49.398;2023-02-28T06:06:48;6.93;;;2.80;;
67185;SDS011;54116;53.518;49.398;2023-02-28T06:09:15;6.63;;;2.45;;
67185;SDS011;54116;53.518;49.398;2023-02-28T06:11:42;6.40;;;2.65;;
67185;SDS011;54116;53.518;49.398;2023-02-28T06:14:14;5.15;;;2.25;;
67185;SDS011;54116;53.518;49.398;2023-02-28T06:16:42;7.07;;;2.45;;
67185;SDS011;54116;53.518;49.398;2023-02-28T06:21:35;6.20;;;2.30;;
67185;SDS011;54116;53.518;49.398;2023-02-28T06:24:02;5.57;;;2.97;;
67185;SDS011;54116;53.518;49.398;2023-02-28T06:26:29;8.60;;;2.72;;
67185;SDS011;54116;53.518;49.398;2023-02-28T06:28:56;6.30;;;2.53;;
67185;SDS011;54116;53.518;49.398;2023-02-28T06:31:22;8.45;;;2.70;;
67185;SDS011;54116;53.518;49.398;2023-02-28T06:33:51;6.72;;;3.10;;
67185;SDS011;54116;53.518;49.398;2023-02-28T06:36:18;6.45;;;2.70;;
67185;SDS011;54116;53.518;49.398;2023-02-28T06:38:44;6.97;;;2.47;;
67185;SDS011;54116;53.518;49.398;2023-02-28T06:41:10;6.13;;;2.50;;
67185;SDS011;54116;53.518;49.398;2023-02-28T06:43:39;6.18;;;2.67;;
67185;SDS011;54116;53.518;49.398;2023-02-28T06:46:08;6.40;;;2.60;;
67185;SDS011;54116;53.518;49.398;2023-02-28T06:48:37;6.40;;;2.25;;
67185;SDS011;54116;53.518;49.398;2023-02-28T06:51:04;5.93;;;2.38;;
67185;SDS011;54116;53.518;49.398;2023-02-28T06:53:32;6.40;;;2.65;;
67185;SDS011;54116;53.518;49.398;2023-02-28T06:55:59;6.78;;;2.60;;
67185;SDS011;54116;53.518;49.398;2023-02-28T06:58:25;6.03;;;2.33;;
67185;SDS011;54116;53.518;49.398;2023-02-28T07:08:11;5.78;;;2.35;;
67185;SDS011;54116;53.518;49.398;2023-02-28T07:10:37;6.68;;;2.58;;
67185;SDS011;54116;53.518;49.398;2023-02-28T07:13:04;7.28;;;2.85;;
67185;SDS011;54116;53.518;49.398;2023-02-28T07:15:31;6.55;;;2.65;;
67185;SDS011;54116;53.518;49.398;2023-02-28T07:20:24;7.32;;;2.63;;
67185;SDS011;54116;53.518;49.398;2023-02-28T07:22:50;5.30;;;2.15;;
67185;SDS011;54116;53.518;49.398;2023-02-28T07:25:22;6.57;;;2.65;;
67185;SDS011;54116;53.518;49.398;2023-02-28T07:27:49;7.07;;;2.72;;
67185;SDS011;54116;53.518;49.398;2023-02-28T07:30:16;7.28;;;2.75;;
67185;SDS011;54116;53.518;49.398;2023-02-28T07:32:43;5.85;;;2.22;;
67185;SDS011;54116;53.518;49.398;2023-02-28T07:35:09;5.75;;;2.20;;
67185;SDS011;54116;53.518;49.398;2023-02-28T07:37:36;5.75;;;2.78;;
67185;SDS011;54116;53.518;49.398;2023-02-28T07:42:36;6.70;;;2.38;;
67185;SDS011;54116;53.518;49.398;2023-02-28T07:45:04;5.30;;;2.17;;
67185;SDS011;54116;53.518;49.398;2023-02-28T07:47:31;5.90;;;2.70;;
67185;SDS011;54116;53.518;49.398;2023-02-28T07:49:58;7.25;;;2.42;;
67185;SDS011;54116;53.518;49.398;2023-02-28T07:52:24;6.68;;;2.75;;
67185;SDS011;54116;53.518;49.398;2023-02-28T07:54:51;6.43;;;2.35;;
67185;SDS011;54116;53.518;49.398;2023-02-28T07:57:18;6.63;;;2.63;;
67185;SDS011;54116;53.518;49.398;2023-02-28T07:59:44;6.45;;;2.78;;
67185;SDS011;54116;53.518;49.398;2023-02-28T08:04:39;5.93;;;2.30;;
67185;SDS011;54116;53.518;49.398;2023-02-28T08:07:05;6.25;;;2.15;;
67185;SDS011;54116;53.518;49.398;2023-02-28T08:09:32;7.43;;;2.30;;
67185;SDS011;54116;53.518;49.398;2023-02-28T08:11:59;6.13;;;2.70;;
67185;SDS011;54116;53.518;49.398;2023-02-28T08:14:26;6.65;;;2.58;;
67185;SDS011;54116;53.518;49.398;2023-02-28T08:16:52;6.13;;;3.03;;
67185;SDS011;54116;53.518;49.398;2023-02-28T08:21:44;5.65;;;2.35;;
67185;SDS011;54116;53.518;49.398;2023-02-28T08:24:11;6.40;;;2.72;;
67185;SDS011;54116;53.518;49.398;2023-02-28T08:26:37;6.13;;;2.80;;
67185;SDS011;54116;53.518;49.398;2023-02-28T08:29:10;5.65;;;2.30;;
67185;SDS011;54116;53.518;49.398;2023-02-28T08:31:37;6.13;;;3.47;;
67185;SDS011;54116;53.518;49.398;2023-02-28T08:34:07;6.97;;;3.22;;
67185;SDS011;54116;53.518;49.398;2023-02-28T08:36:38;8.07;;;2.63;;
67185;SDS011;54116;53.518;49.398;2023-02-28T08:39:05;6.82;;;2.70;;
67185;SDS011;54116;53.518;49.398;2023-02-28T08:41:32;6.00;;;2.47;;
67185;SDS011;54116;53.518;49.398;2023-02-28T08:43:59;7.05;;;2.70;;
67185;SDS011;54116;53.518;49.398;2023-02-28T08:46:25;7.43;;;2.63;;
67185;SDS011;54116;53.518;49.398;2023-02-28T08:48:52;8.77;;;2.72;;
67185;SDS011;54116;53.518;49.398;2023-02-28T08:51:21;6.25;;;2.35;;
67185;SDS011;54116;53.518;49.398;2023-02-28T08:53:52;5.70;;;2.42;;
67185;SDS011;54116;53.518;49.398;2023-02-28T08:56:20;7.05;;;3.28;;
67185;SDS011;54116;53.518;49.398;2023-02-28T08:58:48;7.10;;;3.85;;
67185;SDS011;54116;53.518;49.398;2023-02-28T09:03:46;7.05;;;2.45;;
67185;SDS011;54116;53.518;49.398;2023-02-28T09:06:14;7.38;;;4.15;;
67185;SDS011;54116;53.518;49.398;2023-02-28T09:08:42;6.75;;;2.92;;
67185;SDS011;54116;53.518;49.398;2023-02-28T09:11:09;5.82;;;2.83;;
67185;SDS011;54116;53.518;49.398;2023-02-28T09:13:36;7.03;;;3.33;;
67185;SDS011;54116;53.518;49.398;2023-02-28T09:16:03;7.70;;;3.15;;
67185;SDS011;54116;53.518;49.398;2023-02-28T09:18:31;6.47;;;2.65;;
67185;SDS011;54116;53.518;49.398;2023-02-28T09:20:57;7.22;;;3.30;;
67185;SDS011;54116;53.518;49.398;2023-02-28T09:23:24;6.70;;;3.05;;
67185;SDS011;54116;53.518;49.398;2023-02-28T09:25:51;6.05;;;2.55;;
67185;SDS011;54116;53.518;49.398;2023-02-28T09:28:20;8.35;;;2.75;;
67185;SDS011;54116;53.518;49.398;2023-02-28T09:30:48;6.22;;;2.67;;
67185;SDS011;54116;53.518;49.398;2023-02-28T09:33:17;5.97;;;2.45;;
67185;SDS011;54116;53.518;49.398;2023-02-28T09:35:48;6.13;;;2.53;;
67185;SDS011;54116;53.518;49.398;2023-02-28T09:38:15;5.22;;;2.50;;
67185;SDS011;54116;53.518;49.398;2023-02-28T09:43:20;5.40;;;2.25;;
67185;SDS011;54116;53.518;49.398;2023-02-28T09:45:51;7.22;;;2.47;;
67185;SDS011;54116;53.518;49.398;2023-02-28T09:48:25;5.53;;;2.22;;
67185;SDS011;54116;53.518;49.398;2023-02-28T09:53:30;5.80;;;2.63;;
67185;SDS011;54116;53.518;49.398;2023-02-28T09:56:04;6.47;;;3.50;;
67185;SDS011;54116;53.518;49.398;2023-02-28T09:58:46;7.40;;;3.10;;
67185;SDS011;54116;53.518;49.398;2023-02-28T10:06:53;5.22;;;2.33;;
67185;SDS011;54116;53.518;49.398;2023-02-28T10:09:24;8.10;;;2.90;;
67185;SDS011;54116;53.518;49.398;2023-02-28T10:11:53;6.55;;;2.63;;
67185;SDS011;54116;53.518;49.398;2023-02-28T10:14:26;6.63;;;3.15;;
67185;SDS011;54116;53.518;49.398;2023-02-28T10:17:03;6.32;;;2.90;;
67185;SDS011;54116;53.518;49.398;2023-02-28T10:22:21;7.05;;;3.20;;
67185;SDS011;54116;53.518;49.398;2023-02-28T10:24:58;7.97;;;3.03;;
67185;SDS011;54116;53.518;49.398;2023-02-28T10:27:31;7.63;;;2.65;;
67185;SDS011;54116;53.518;49.398;2023-02-28T10:29:59;6.72;;;2.88;;
67185;SDS011;54116;53.518;49.398;2023-02-28T10:32:28;7.43;;;2.70;;
67185;SDS011;54116;53.518;49.398;2023-02-28T10:35:00;7.47;;;2.92;;
67185;SDS011;54116;53.518;49.398;2023-02-28T10:37:39;7.57;;;2.88;;
67185;SDS011;54116;53.518;49.398;2023-02-28T10:45:26;7.25;;;2.92;;
67185;SDS011;54116;53.518;49.398;2023-02-28T10:47:57;7.32;;;2.88;;
67185;SDS011;54116;53.518;49.398;2023-02-28T10:50:28;7.90;;;2.97;;
67185;SDS011;54116;53.518;49.398;2023-02-28T10:53:05;7.57;;;3.05;;
67185;SDS011;54116;53.518;49.398;2023-02-28T10:58:50;6.70;;;2.65;;
67185;SDS011;54116;53.518;49.398;2023-02-28T11:01:46;8.30;;;3.55;;
67185;SDS011;54116;53.518;49.398;2023-02-28T11:07:02;8.80;;;2.78;;
67185;SDS011;54116;53.518;49.398;2023-02-28T11:09:44;6.75;;;2.65;;
67185;SDS011;54116;53.518;49.398;2023-02-28T11:12:46;7.43;;;2.78;;
67185;SDS011;54116;53.518;49.398;2023-02-28T11:20:26;8.18;;;3.10;;
67185;SDS011;54116;53.518;49.398;2023-02-28T11:22:56;9.05;;;3.75;;
67185;SDS011;54116;53.518;49.398;2023-02-28T11:25:25;7.47;;;3.08;;
67185;SDS011;54116;53.518;49.398;2023-02-28T11:27:55;6.55;;;2.78;;
67185;SDS011;54116;53.518;49.398;2023-02-28T11:32:57;8.48;;;3.47;;
67185;SDS011;54116;53.518;49.398;2023-02-28T11:35:27;10.10;;;3.08;;
67185;SDS011;54116;53.518;49.398;2023-02-28T11:37:57;7.70;;;3.40;;
67185;SDS011;54116;53.518;49.398;2023-02-28T11:40:36;8.35;;;3.30;;
67185;SDS011;54116;53.518;49.398;2023-02-28T11:46:00;8.55;;;3.53;;
67185;SDS011;54116;53.518;49.398;2023-02-28T11:51:40;8.45;;;3.53;;
67185;SDS011;54116;53.518;49.398;2023-02-28T12:00:54;7.53;;;3.30;;
67185;SDS011;54116;53.518;49.398;2023-02-28T12:06:21;7.85;;;3.05;;
67185;SDS011;54116;53.518;49.398;2023-02-28T12:19:43;9.15;;;3.58;;
67185;SDS011;54116;53.518;49.398;2023-02-28T12:22:32;9.73;;;3.45;;
67185;SDS011;54116;53.518;49.398;2023-02-28T12:28:16;7.85;;;3.22;;
67185;SDS011;54116;53.518;49.398;2023-02-28T12:33:45;7.90;;;3.15;;
67185;SDS011;54116;53.518;49.398;2023-02-28T12:36:16;8.43;;;3.28;;
67185;SDS011;54116;53.518;49.398;2023-02-28T12:41:24;7.72;;;3.17;;
67185;SDS011;54116;53.518;49.398;2023-02-28T12:44:02;8.55;;;3.90;;
67185;SDS011;54116;53.518;49.398;2023-02-28T12:46:37;8.82;;;3.95;;
67185;SDS011;54116;53.518;49.398;2023-02-28T12:49:16;8.35;;;3.22;;
67185;SDS011;54116;53.518;49.398;2023-02-28T12:54:25;7.32;;;2.78;;
67185;SDS011;54116;53.518;49.398;2023-02-28T12:59:38;7.28;;;3.22;;
67185;SDS011;54116;53.518;49.398;2023-02-28T13:05:02;6.70;;;2.58;;
67185;SDS011;54116;53.518;49.398;2023-02-28T13:08:13;8.85;;;3.10;;
67185;SDS011;54116;53.518;49.398;2023-02-28T13:10:56;6.75;;;2.67;;
67185;SDS011;54116;53.518;49.398;2023-02-28T13:13:24;6.88;;;3.13;;
67185;SDS011;54116;53.518;49.398;2023-02-28T13:16:11;7.88;;;2.78;;
67185;SDS011;54116;53.518;49.398;2023-02-28T13:18:38;6.88;;;3.03;;
67185;SDS011;54116;53.518;49.398;2023-02-28T13:21:09;6.97;;;2.80;;
67185;SDS011;54116;53.518;49.398;2023-02-28T13:24:00;7.75;;;3.25;;
67185;SDS011;54116;53.518;49.398;2023-02-28T13:29:03;8.13;;;3.30;;
67185;SDS011;54116;53.518;49.398;2023-02-28T13:34:36;8.68;;;3.30;;
67185;SDS011;54116;53.518;49.398;2023-02-28T13:39:56;7.65;;;3.15;;
67185;SDS011;54116;53.518;49.398;2023-02-28T13:42:46;6.90;;;3.00;;
67185;SDS011;54116;53.518;49.398;2023-02-28T13:45:23;7.63;;;3.25;;
67185;SDS011;54116;53.518;49.398;2023-02-28T13:47:53;8.25;;;3.47;;
67185;SDS011;54116;53.518;49.398;2023-02-28T14:08:59;8.88;;;3.30;;
67185;SDS011;54116;53.518;49.398;2023-02-28T14:11:45;8.63;;;3.22;;
67185;SDS011;54116;53.518;49.398;2023-02-28T14:16:56;8.23;;;3.08;;
67185;SDS011;54116;53.518;49.398;2023-02-28T14:19:25;8.32;;;3.75;;
67185;SDS011;54116;53.518;49.398;2023-02-28T14:35:39;8.73;;;3.28;;
67185;SDS011;54116;53.518;49.398;2023-02-28T14:38:20;9.57;;;4.28;;
67185;SDS011;54116;53.518;49.398;2023-02-28T14:43:24;7.90;;;3.38;;
67185;SDS011;54116;53.518;49.398;2023-02-28T14:45:56;8.77;;;3.35;;
67185;SDS011;54116;53.518;49.398;2023-02-28T14:48:23;8.25;;;3.83;;
67185;SDS011;54116;53.518;49.398;2023-02-28T14:50:53;10.20;;;3.90;;
67185;SDS011;54116;53.518;49.398;2023-02-28T14:53:23;9.63;;;4.55;;
67185;SDS011;54116;53.518;49.398;2023-02-28T14:55:52;9.20;;;3.67;;
67185;SDS011;54116;53.518;49.398;2023-02-28T14:58:26;10.00;;;3.42;;
67185;SDS011;54116;53.518;49.398;2023-02-28T15:00:55;9.45;;;3.80;;
67185;SDS011;54116;53.518;49.398;2023-02-28T15:03:32;8.93;;;3.58;;
67185;SDS011;54116;53.518;49.398;2023-02-28T15:06:02;9.88;;;3.80;;
67185;SDS011;54116;53.518;49.398;2023-02-28T15:08:30;8.70;;;3.42;;
67185;SDS011;54116;53.518;49.398;2023-02-28T15:11:02;8.30;;;3.42;;
67185;SDS011;54116;53.518;49.398;2023-02-28T15:13:37;9.57;;;3.97;;
67185;SDS011;54116;53.518;49.398;2023-02-28T15:16:05;8.82;;;3.80;;
67185;SDS011;54116;53.518;49.398;2023-02-28T15:21:15;11.57;;;4.13;;
67185;SDS011;54116;53.518;49.398;2023-02-28T15:23:45;8.57;;;3.92;;
67185;SDS011;54116;53.518;49.398;2023-02-28T15:26:16;8.70;;;4.25;;
67185;SDS011;54116;53.518;49.398;2023-02-28T15:28:47;10.30;;;3.45;;
67185;SDS011;54116;53.518;49.398;2023-02-28T15:31:27;8.82;;;3.50;;
67185;SDS011;54116;53.518;49.398;2023-02-28T15:33:57;10.20;;;4.10;;
67185;SDS011;54116;53.518;49.398;2023-02-28T15:36:30;11.82;;;4.18;;
67185;SDS011;54116;53.518;49.398;2023-02-28T15:38:59;8.32;;;3.42;;
67185;SDS011;54116;53.518;49.398;2023-02-28T15:41:28;9.98;;;3.72;;
67185;SDS011;54116;53.518;49.398;2023-02-28T15:46:43;9.00;;;3.42;;
67185;SDS011;54116;53.518;49.398;2023-02-28T15:49:19;8.27;;;3.45;;
67185;SDS011;54116;53.518;49.398;2023-02-28T15:51:48;9.15;;;3.78;;
67185;SDS011;54116;53.518;49.398;2023-02-28T15:54:19;7.90;;;3.10;;
67185;SDS011;54116;53.518;49.398;2023-02-28T15:56:57;9.02;;;3.42;;
67185;SDS011;54116;53.518;49.398;2023-02-28T15:59:28;9.63;;;3.75;;
67185;SDS011;54116;53.518;49.398;2023-02-28T16:02:03;8.40;;;3.97;;
67185;SDS011;54116;53.518;49.398;2023-02-28T16:04:36;7.10;;;3.22;;
67185;SDS011;54116;53.518;49.398;2023-02-28T16:09:31;6.65;;;3.15;;
67185;SDS011;54116;53.518;49.398;2023-02-28T16:12:01;7.80;;;3.17;;
67185;SDS011;54116;53.518;49.398;2023-02-28T16:14:29;9.80;;;3.35;;
67185;SDS011;54116;53.518;49.398;2023-02-28T16:17:03;8.38;;;3.25;;
67185;SDS011;54116;53.518;49.398;2023-02-28T16:19:31;9.07;;;3.58;;
67185;SDS011;54116;53.518;49.398;2023-02-28T16:21:58;8.63;;;3.15;;
67185;SDS011;54116;53.518;49.398;2023-02-28T16:24:24;8.05;;;3.42;;
67185;SDS011;54116;53.518;49.398;2023-02-28T16:26:50;11.40;;;3.65;;
67185;SDS011;54116;53.518;49.398;2023-02-28T16:31:54;9.60;;;3.47;;
67185;SDS011;54116;53.518;49.398;2023-02-28T16:34:20;7.25;;;2.97;;
67185;SDS011;54116;53.518;49.398;2023-02-28T16:36:47;8.10;;;3.22;;
67185;SDS011;54116;53.518;49.398;2023-02-28T16:39:15;7.90;;;3.65;;
67185;SDS011;54116;53.518;49.398;2023-02-28T16:41:42;7.70;;;3.58;;
67185;SDS011;54116;53.518;49.398;2023-02-28T16:44:17;9.98;;;3.67;;
67185;SDS011;54116;53.518;49.398;2023-02-28T16:46:53;7.93;;;3.22;;
67185;SDS011;54116;53.518;49.398;2023-02-28T16:49:21;8.95;;;3.55;;
67185;SDS011;54116;53.518;49.398;2023-02-28T16:51:47;7.95;;;3.25;;
67185;SDS011;54116;53.518;49.398;2023-02-28T16:54:13;7.82;;;3.10;;
67185;SDS011;54116;53.518;49.398;2023-02-28T16:56:41;8.57;;;3.35;;
67185;SDS011;54116;53.518;49.398;2023-02-28T16:59:10;7.93;;;3.15;;
67185;SDS011;54116;53.518;49.398;2023-02-28T17:04:36;8.00;;;3.22;;
67185;SDS011;54116;53.518;49.398;2023-02-28T17:07:02;8.55;;;4.25;;
67185;SDS011;54116;53.518;49.398;2023-02-28T17:09:28;7.93;;;3.67;;
67185;SDS011;54116;53.518;49.398;2023-02-28T17:11:58;9.55;;;3.72;;
67185;SDS011;54116;53.518;49.398;2023-02-28T17:14:25;9.77;;;3.65;;
67185;SDS011;54116;53.518;49.398;2023-02-28T17:19:17;8.65;;;3.45;;
67185;SDS011;54116;53.518;49.398;2023-02-28T17:21:44;9.15;;;3.45;;
67185;SDS011;54116;53.518;49.398;2023-02-28T17:24:11;9.82;;;3.60;;
67185;SDS011;54116;53.518;49.398;2023-02-28T17:26:38;8.30;;;3.70;;
67185;SDS011;54116;53.518;49.398;2023-02-28T17:29:24;9.75;;;3.58;;
67185;SDS011;54116;53.518;49.398;2023-02-28T17:31:50;10.07;;;4.05;;
67185;SDS011;54116;53.518;49.398;2023-02-28T17:34:17;9.80;;;3.38;;
67185;SDS011;54116;53.518;49.398;2023-02-28T17:36:46;8.48;;;3.63;;
67185;SDS011;54116;53.518;49.398;2023-02-28T17:39:14;8.32;;;3.60;;
67185;SDS011;54116;53.518;49.398;2023-02-28T17:41:51;8.52;;;3.55;;
67185;SDS011;54116;53.518;49.398;2023-02-28T17:44:18;8.90;;;3.50;;
67185;SDS011;54116;53.518;49.398;2023-02-28T17:46:47;9.90;;;3.95;;
67185;SDS011;54116;53.518;49.398;2023-02-28T17:49:15;11.27;;;4.25;;
67185;SDS011;54116;53.518;49.398;2023-02-28T17:51:42;9.93;;;3.47;;
67185;SDS011;54116;53.518;49.398;2023-02-28T17:54:09;10.52;;;4.05;;
67185;SDS011;54116;53.518;49.398;2023-02-28T17:56:36;8.77;;;3.67;;
67185;SDS011;54116;53.518;49.398;2023-02-28T17:59:03;8.75;;;3.45;;
67185;SDS011;54116;53.518;49.398;2023-02-28T18:01:29;9.15;;;3.63;;
67185;SDS011;54116;53.518;49.398;2023-02-28T18:03:56;10.35;;;3.97;;
67185;SDS011;54116;53.518;49.398;2023-02-28T18:06:26;12.25;;;3.58;;
67185;SDS011;54116;53.518;49.398;2023-02-28T18:08:56;9.55;;;3.80;;
67185;SDS011;54116;53.518;49.398;2023-02-28T18:11:24;7.63;;;3.35;;
67185;SDS011;54116;53.518;49.398;2023-02-28T18:13:52;10.05;;;3.58;;
67185;SDS011;54116;53.518;49.398;2023-02-28T18:16:21;9.07;;;3.75;;
67185;SDS011;54116;53.518;49.398;2023-02-28T18:18:47;9.05;;;3.65;;
67185;SDS011;54116;53.518;49.398;2023-02-28T18:21:15;10.52;;;4.18;;
67185;SDS011;54116;53.518;49.398;2023-02-28T18:23:42;7.93;;;3.92;;
67185;SDS011;54116;53.518;49.398;2023-02-28T18:26:13;8.63;;;3.35;;
67185;SDS011;54116;53.518;49.398;2023-02-28T18:28:40;10.05;;;3.75;;
67185;SDS011;54116;53.518;49.398;2023-02-28T18:31:13;9.20;;;3.58;;
67185;SDS011;54116;53.518;49.398;2023-02-28T18:33:42;9.27;;;3.72;;